sensor_id;sensor_type;location;lat;lon;timestamp;pressure;altitude;pressure_sealevel;temperature
69435;BMP180;56625;54.322;18.582;2023-04-15T00:00:09;100375.00;;;10.50
69435;BMP180;56625;54.322;18.582;2023-04-15T00:02:56;100372.60;;;10.50
69435;BMP180;56625;54.322;18.582;2023-04-15T00:05:25;100367.20;;;10.50
69435;BMP180;56625;54.322;18.582;2023-04-15T00:07:52;100371.80;;;10.52
69435;BMP180;56625;54.322;18.582;2023-04-15T00:10:21;100373.20;;;10.50
69435;BMP180;56625;54.322;18.582;2023-04-15T00:12:49;100370.80;;;10.50
69435;BMP180;56625;54.322;18.582;2023-04-15T00:15:18;100364.80;;;10.48
69435;BMP180;56625;54.322;18.582;2023-04-15T00:17:46;100367.40;;;10.40
69435;BMP180;56625;54.322;18.582;2023-04-15T00:20:14;100370.20;;;10.40
69435;BMP180;56625;54.322;18.582;2023-04-15T00:22:42;100371.20;;;10.40
69435;BMP180;56625;54.322;18.582;2023-04-15T00:25:10;100366.80;;;10.40
69435;BMP180;56625;54.322;18.582;2023-04-15T00:27:38;100362.80;;;10.40
69435;BMP180;56625;54.322;18.582;2023-04-15T00:30:06;100357.20;;;10.40
69435;BMP180;56625;54.322;18.582;2023-04-15T00:32:34;100360.40;;;10.40
69435;BMP180;56625;54.322;18.582;2023-04-15T00:35:03;100352.00;;;10.40
69435;BMP180;56625;54.322;18.582;2023-04-15T00:37:30;100353.40;;;10.40
69435;BMP180;56625;54.322;18.582;2023-04-15T00:39:58;100358.00;;;10.40
69435;BMP180;56625;54.322;18.582;2023-04-15T00:42:26;100351.80;;;10.40
69435;BMP180;56625;54.322;18.582;2023-04-15T00:44:55;100358.80;;;10.40
69435;BMP180;56625;54.322;18.582;2023-04-15T00:47:24;100359.80;;;10.40
69435;BMP180;56625;54.322;18.582;2023-04-15T00:49:53;100353.60;;;10.40
69435;BMP180;56625;54.322;18.582;2023-04-15T00:52:21;100356.20;;;10.40
69435;BMP180;56625;54.322;18.582;2023-04-15T00:54:49;100353.60;;;10.40
69435;BMP180;56625;54.322;18.582;2023-04-15T00:57:20;100353.40;;;10.40
69435;BMP180;56625;54.322;18.582;2023-04-15T00:59:49;100356.40;;;10.40
69435;BMP180;56625;54.322;18.582;2023-04-15T01:02:19;100356.80;;;10.40
69435;BMP180;56625;54.322;18.582;2023-04-15T01:04:48;100357.60;;;10.40
69435;BMP180;56625;54.322;18.582;2023-04-15T01:07:17;100358.00;;;10.40
69435;BMP180;56625;54.322;18.582;2023-04-15T01:09:45;100359.20;;;10.40
69435;BMP180;56625;54.322;18.582;2023-04-15T01:12:14;100358.00;;;10.40
69435;BMP180;56625;54.322;18.582;2023-04-15T01:14:45;100359.00;;;10.34
69435;BMP180;56625;54.322;18.582;2023-04-15T01:17:13;100360.60;;;10.30
69435;BMP180;56625;54.322;18.582;2023-04-15T01:19:41;100362.80;;;10.30
69435;BMP180;56625;54.322;18.582;2023-04-15T01:22:09;100363.20;;;10.30
69435;BMP180;56625;54.322;18.582;2023-04-15T01:24:37;100358.00;;;10.30
69435;BMP180;56625;54.322;18.582;2023-04-15T01:27:06;100362.80;;;10.30
69435;BMP180;56625;54.322;18.582;2023-04-15T01:29:37;100364.60;;;10.30
69435;BMP180;56625;54.322;18.582;2023-04-15T01:32:05;100371.80;;;10.30
69435;BMP180;56625;54.322;18.582;2023-04-15T01:34:33;100370.20;;;10.24
69435;BMP180;56625;54.322;18.582;2023-04-15T01:37:02;100365.00;;;10.20
69435;BMP180;56625;54.322;18.582;2023-04-15T01:39:30;100366.40;;;10.20
69435;BMP180;56625;54.322;18.582;2023-04-15T01:41:58;100368.20;;;10.20
69435;BMP180;56625;54.322;18.582;2023-04-15T01:44:25;100369.60;;;10.20
69435;BMP180;56625;54.322;18.582;2023-04-15T01:46:54;100370.60;;;10.18
69435;BMP180;56625;54.322;18.582;2023-04-15T01:49:22;100366.00;;;10.20
69435;BMP180;56625;54.322;18.582;2023-04-15T01:51:50;100368.80;;;10.20
69435;BMP180;56625;54.322;18.582;2023-04-15T01:54:18;100364.60;;;10.20
69435;BMP180;56625;54.322;18.582;2023-04-15T01:56:46;100369.60;;;10.16
69435;BMP180;56625;54.322;18.582;2023-04-15T01:59:14;100363.60;;;10.10
69435;BMP180;56625;54.322;18.582;2023-04-15T02:01:41;100362.20;;;10.10
69435;BMP180;56625;54.322;18.582;2023-04-15T02:04:10;100362.80;;;10.10
69435;BMP180;56625;54.322;18.582;2023-04-15T02:06:43;100364.80;;;10.10
69435;BMP180;56625;54.322;18.582;2023-04-15T02:09:11;100368.00;;;10.00
69435;BMP180;56625;54.322;18.582;2023-04-15T02:11:39;100369.40;;;10.00
69435;BMP180;56625;54.322;18.582;2023-04-15T02:14:06;100377.60;;;10.00
69435;BMP180;56625;54.322;18.582;2023-04-15T02:16:34;100377.80;;;9.98
69435;BMP180;56625;54.322;18.582;2023-04-15T02:19:03;100382.80;;;9.90
69435;BMP180;56625;54.322;18.582;2023-04-15T02:21:31;100375.80;;;9.90
69435;BMP180;56625;54.322;18.582;2023-04-15T02:23:58;100373.00;;;9.90
69435;BMP180;56625;54.322;18.582;2023-04-15T02:26:27;100372.80;;;9.80
69435;BMP180;56625;54.322;18.582;2023-04-15T02:28:55;100377.20;;;9.80
69435;BMP180;56625;54.322;18.582;2023-04-15T02:31:24;100370.80;;;9.80
69435;BMP180;56625;54.322;18.582;2023-04-15T02:33:52;100374.60;;;9.80
69435;BMP180;56625;54.322;18.582;2023-04-15T02:36:20;100376.80;;;9.78
69435;BMP180;56625;54.322;18.582;2023-04-15T02:38:48;100375.60;;;9.74
69435;BMP180;56625;54.322;18.582;2023-04-15T02:41:16;100371.40;;;9.80
69435;BMP180;56625;54.322;18.582;2023-04-15T02:43:44;100374.40;;;9.80
69435;BMP180;56625;54.322;18.582;2023-04-15T02:46:12;100373.60;;;9.80
69435;BMP180;56625;54.322;18.582;2023-04-15T02:48:41;100371.60;;;9.80
69435;BMP180;56625;54.322;18.582;2023-04-15T02:51:16;100374.60;;;9.80
69435;BMP180;56625;54.322;18.582;2023-04-15T02:53:47;100375.00;;;9.80
69435;BMP180;56625;54.322;18.582;2023-04-15T02:56:15;100376.40;;;9.80
69435;BMP180;56625;54.322;18.582;2023-04-15T02:58:44;100375.20;;;9.80
69435;BMP180;56625;54.322;18.582;2023-04-15T03:01:12;100373.60;;;9.80
69435;BMP180;56625;54.322;18.582;2023-04-15T03:03:40;100377.60;;;9.80
69435;BMP180;56625;54.322;18.582;2023-04-15T03:06:08;100375.20;;;9.80
69435;BMP180;56625;54.322;18.582;2023-04-15T03:08:36;100378.20;;;9.80
69435;BMP180;56625;54.322;18.582;2023-04-15T03:11:04;100377.00;;;9.80
69435;BMP180;56625;54.322;18.582;2023-04-15T03:13:33;100378.20;;;9.80
69435;BMP180;56625;54.322;18.582;2023-04-15T03:16:00;100375.40;;;9.80
69435;BMP180;56625;54.322;18.582;2023-04-15T03:18:29;100377.60;;;9.80
69435;BMP180;56625;54.322;18.582;2023-04-15T03:20:56;100377.00;;;9.80
69435;BMP180;56625;54.322;18.582;2023-04-15T03:23:24;100375.80;;;9.80
69435;BMP180;56625;54.322;18.582;2023-04-15T03:25:52;100385.80;;;9.80
69435;BMP180;56625;54.322;18.582;2023-04-15T03:28:23;100385.20;;;9.80
69435;BMP180;56625;54.322;18.582;2023-04-15T03:30:51;100384.60;;;9.80
69435;BMP180;56625;54.322;18.582;2023-04-15T03:33:18;100382.00;;;9.80
69435;BMP180;56625;54.322;18.582;2023-04-15T03:35:46;100388.00;;;9.80
69435;BMP180;56625;54.322;18.582;2023-04-15T03:38:14;100386.40;;;9.80
69435;BMP180;56625;54.322;18.582;2023-04-15T03:40:42;100384.40;;;9.80
69435;BMP180;56625;54.322;18.582;2023-04-15T03:43:10;100388.00;;;9.74
69435;BMP180;56625;54.322;18.582;2023-04-15T03:45:37;100387.80;;;9.80
69435;BMP180;56625;54.322;18.582;2023-04-15T03:48:05;100381.40;;;9.78
69435;BMP180;56625;54.322;18.582;2023-04-15T03:50:44;100386.40;;;9.80
69435;BMP180;56625;54.322;18.582;2023-04-15T03:53:13;100380.60;;;9.80
69435;BMP180;56625;54.322;18.582;2023-04-15T03:55:41;100384.00;;;9.80
69435;BMP180;56625;54.322;18.582;2023-04-15T03:58:09;100379.80;;;9.80
69435;BMP180;56625;54.322;18.582;2023-04-15T04:00:39;100380.60;;;9.80
69435;BMP180;56625;54.322;18.582;2023-04-15T04:03:08;100382.40;;;9.80
69435;BMP180;56625;54.322;18.582;2023-04-15T04:05:36;100382.40;;;9.80
69435;BMP180;56625;54.322;18.582;2023-04-15T04:08:06;100383.40;;;9.80
69435;BMP180;56625;54.322;18.582;2023-04-15T04:10:34;100388.80;;;9.80
69435;BMP180;56625;54.322;18.582;2023-04-15T04:13:02;100384.80;;;9.80
69435;BMP180;56625;54.322;18.582;2023-04-15T04:15:30;100393.40;;;9.80
69435;BMP180;56625;54.322;18.582;2023-04-15T04:17:58;100392.80;;;9.80
69435;BMP180;56625;54.322;18.582;2023-04-15T04:20:26;100388.40;;;9.80
69435;BMP180;56625;54.322;18.582;2023-04-15T04:22:53;100392.60;;;9.80
69435;BMP180;56625;54.322;18.582;2023-04-15T04:25:21;100391.00;;;9.78
69435;BMP180;56625;54.322;18.582;2023-04-15T04:27:49;100394.00;;;9.70
69435;BMP180;56625;54.322;18.582;2023-04-15T04:30:17;100394.80;;;9.70
69435;BMP180;56625;54.322;18.582;2023-04-15T04:32:45;100396.60;;;9.70
69435;BMP180;56625;54.322;18.582;2023-04-15T04:35:13;100394.60;;;9.68
69435;BMP180;56625;54.322;18.582;2023-04-15T04:37:40;100395.20;;;9.60
69435;BMP180;56625;54.322;18.582;2023-04-15T04:40:09;100394.60;;;9.60
69435;BMP180;56625;54.322;18.582;2023-04-15T04:42:37;100395.60;;;9.60
69435;BMP180;56625;54.322;18.582;2023-04-15T04:45:07;100392.60;;;9.60
69435;BMP180;56625;54.322;18.582;2023-04-15T04:47:35;100400.00;;;9.60
69435;BMP180;56625;54.322;18.582;2023-04-15T04:50:03;100400.00;;;9.60
69435;BMP180;56625;54.322;18.582;2023-04-15T04:52:31;100399.80;;;9.60
69435;BMP180;56625;54.322;18.582;2023-04-15T04:54:59;100403.40;;;9.68
69435;BMP180;56625;54.322;18.582;2023-04-15T04:57:27;100407.00;;;9.70
69435;BMP180;56625;54.322;18.582;2023-04-15T04:59:55;100405.20;;;9.70
69435;BMP180;56625;54.322;18.582;2023-04-15T05:02:23;100403.80;;;9.74
69435;BMP180;56625;54.322;18.582;2023-04-15T05:04:54;100409.40;;;9.80
69435;BMP180;56625;54.322;18.582;2023-04-15T05:07:22;100411.80;;;9.80
69435;BMP180;56625;54.322;18.582;2023-04-15T05:09:49;100407.80;;;9.80
69435;BMP180;56625;54.322;18.582;2023-04-15T05:12:18;100405.40;;;9.82
69435;BMP180;56625;54.322;18.582;2023-04-15T05:14:45;100405.60;;;9.90
69435;BMP180;56625;54.322;18.582;2023-04-15T05:17:13;100410.60;;;9.90
69435;BMP180;56625;54.322;18.582;2023-04-15T05:19:41;100415.00;;;9.98
69435;BMP180;56625;54.322;18.582;2023-04-15T05:22:09;100411.60;;;10.00
69435;BMP180;56625;54.322;18.582;2023-04-15T05:24:37;100413.60;;;10.00
69435;BMP180;56625;54.322;18.582;2023-04-15T05:27:05;100412.00;;;10.08
69435;BMP180;56625;54.322;18.582;2023-04-15T05:29:35;100408.00;;;10.10
69435;BMP180;56625;54.322;18.582;2023-04-15T05:32:03;100411.60;;;10.10
69435;BMP180;56625;54.322;18.582;2023-04-15T05:34:31;100415.60;;;10.20
69435;BMP180;56625;54.322;18.582;2023-04-15T05:36:59;100408.40;;;10.20
69435;BMP180;56625;54.322;18.582;2023-04-15T05:39:27;100409.80;;;10.30
69435;BMP180;56625;54.322;18.582;2023-04-15T05:41:55;100413.00;;;10.34
69435;BMP180;56625;54.322;18.582;2023-04-15T05:44:24;100410.80;;;10.40
69435;BMP180;56625;54.322;18.582;2023-04-15T05:46:52;100412.00;;;10.44
69435;BMP180;56625;54.322;18.582;2023-04-15T05:49:20;100413.40;;;10.50
69435;BMP180;56625;54.322;18.582;2023-04-15T05:51:48;100412.40;;;10.58
69435;BMP180;56625;54.322;18.582;2023-04-15T05:54:16;100411.60;;;10.60
69435;BMP180;56625;54.322;18.582;2023-04-15T05:56:46;100410.20;;;10.70
69435;BMP180;56625;54.322;18.582;2023-04-15T05:59:14;100409.40;;;10.70
69435;BMP180;56625;54.322;18.582;2023-04-15T06:01:42;100412.20;;;10.80
69435;BMP180;56625;54.322;18.582;2023-04-15T06:04:10;100418.00;;;10.80
69435;BMP180;56625;54.322;18.582;2023-04-15T06:06:38;100416.20;;;10.82
69435;BMP180;56625;54.322;18.582;2023-04-15T06:09:07;100415.00;;;10.90
69435;BMP180;56625;54.322;18.582;2023-04-15T06:11:34;100411.80;;;10.90
69435;BMP180;56625;54.322;18.582;2023-04-15T06:14:02;100414.60;;;11.00
69435;BMP180;56625;54.322;18.582;2023-04-15T06:16:30;100417.60;;;11.00
69435;BMP180;56625;54.322;18.582;2023-04-15T06:18:58;100417.40;;;11.00
69435;BMP180;56625;54.322;18.582;2023-04-15T06:21:27;100416.00;;;11.00
69435;BMP180;56625;54.322;18.582;2023-04-15T06:23:54;100415.00;;;11.08
69435;BMP180;56625;54.322;18.582;2023-04-15T06:26:23;100423.80;;;11.10
69435;BMP180;56625;54.322;18.582;2023-04-15T06:28:51;100419.40;;;11.10
69435;BMP180;56625;54.322;18.582;2023-04-15T06:31:19;100422.60;;;11.10
69435;BMP180;56625;54.322;18.582;2023-04-15T06:33:47;100422.40;;;11.16
69435;BMP180;56625;54.322;18.582;2023-04-15T06:36:15;100425.40;;;11.20
69435;BMP180;56625;54.322;18.582;2023-04-15T06:38:43;100422.60;;;11.20
69435;BMP180;56625;54.322;18.582;2023-04-15T06:41:11;100421.00;;;11.24
69435;BMP180;56625;54.322;18.582;2023-04-15T06:43:39;100426.40;;;11.30
69435;BMP180;56625;54.322;18.582;2023-04-15T06:46:07;100429.40;;;11.30
69435;BMP180;56625;54.322;18.582;2023-04-15T06:48:34;100423.60;;;11.30
69435;BMP180;56625;54.322;18.582;2023-04-15T06:51:02;100415.20;;;11.40
69435;BMP180;56625;54.322;18.582;2023-04-15T06:53:30;100426.00;;;11.40
69435;BMP180;56625;54.322;18.582;2023-04-15T06:55:58;100427.20;;;11.50
69435;BMP180;56625;54.322;18.582;2023-04-15T06:58:26;100435.80;;;11.50
69435;BMP180;56625;54.322;18.582;2023-04-15T07:00:54;100426.80;;;11.52
69435;BMP180;56625;54.322;18.582;2023-04-15T07:03:22;100435.80;;;11.50
69435;BMP180;56625;54.322;18.582;2023-04-15T07:05:50;100431.00;;;11.50
69435;BMP180;56625;54.322;18.582;2023-04-15T07:08:19;100432.40;;;11.52
69435;BMP180;56625;54.322;18.582;2023-04-15T07:10:47;100434.20;;;11.50
69435;BMP180;56625;54.322;18.582;2023-04-15T07:13:18;100433.20;;;11.50
69435;BMP180;56625;54.322;18.582;2023-04-15T07:15:48;100429.40;;;11.60
69435;BMP180;56625;54.322;18.582;2023-04-15T07:18:16;100435.60;;;11.60
69435;BMP180;56625;54.322;18.582;2023-04-15T07:20:44;100431.60;;;11.64
69435;BMP180;56625;54.322;18.582;2023-04-15T07:23:12;100434.40;;;11.60
69435;BMP180;56625;54.322;18.582;2023-04-15T07:25:40;100434.80;;;11.66
69435;BMP180;56625;54.322;18.582;2023-04-15T07:28:07;100433.40;;;11.70
69435;BMP180;56625;54.322;18.582;2023-04-15T07:30:36;100435.80;;;11.70
69435;BMP180;56625;54.322;18.582;2023-04-15T07:33:04;100443.20;;;11.70
69435;BMP180;56625;54.322;18.582;2023-04-15T07:35:32;100442.00;;;11.70
69435;BMP180;56625;54.322;18.582;2023-04-15T07:38:00;100439.20;;;11.70
69435;BMP180;56625;54.322;18.582;2023-04-15T07:40:29;100438.60;;;11.80
69435;BMP180;56625;54.322;18.582;2023-04-15T07:42:56;100434.60;;;11.80
69435;BMP180;56625;54.322;18.582;2023-04-15T07:45:25;100444.00;;;11.80
69435;BMP180;56625;54.322;18.582;2023-04-15T07:47:54;100446.20;;;11.70
69435;BMP180;56625;54.322;18.582;2023-04-15T07:50:23;100442.20;;;11.70
69435;BMP180;56625;54.322;18.582;2023-04-15T07:52:51;100446.80;;;11.70
69435;BMP180;56625;54.322;18.582;2023-04-15T07:55:19;100446.60;;;11.70
69435;BMP180;56625;54.322;18.582;2023-04-15T07:57:49;100447.00;;;11.74
69435;BMP180;56625;54.322;18.582;2023-04-15T08:00:17;100445.20;;;11.70
69435;BMP180;56625;54.322;18.582;2023-04-15T08:02:45;100445.40;;;11.70
69435;BMP180;56625;54.322;18.582;2023-04-15T08:05:15;100443.80;;;11.70
69435;BMP180;56625;54.322;18.582;2023-04-15T08:07:43;100442.80;;;11.70
69435;BMP180;56625;54.322;18.582;2023-04-15T08:10:11;100439.40;;;11.70
69435;BMP180;56625;54.322;18.582;2023-04-15T08:12:39;100442.20;;;11.80
69435;BMP180;56625;54.322;18.582;2023-04-15T08:15:08;100445.80;;;11.80
69435;BMP180;56625;54.322;18.582;2023-04-15T08:17:35;100446.00;;;11.80
69435;BMP180;56625;54.322;18.582;2023-04-15T08:20:05;100441.60;;;11.80
69435;BMP180;56625;54.322;18.582;2023-04-15T08:22:33;100445.40;;;11.80
69435;BMP180;56625;54.322;18.582;2023-04-15T08:25:01;100449.00;;;11.80
69435;BMP180;56625;54.322;18.582;2023-04-15T08:27:30;100446.60;;;11.80
69435;BMP180;56625;54.322;18.582;2023-04-15T08:29:57;100445.80;;;11.72
69435;BMP180;56625;54.322;18.582;2023-04-15T08:32:25;100449.00;;;11.70
69435;BMP180;56625;54.322;18.582;2023-04-15T08:34:54;100449.00;;;11.70
69435;BMP180;56625;54.322;18.582;2023-04-15T08:37:21;100453.80;;;11.70
69435;BMP180;56625;54.322;18.582;2023-04-15T08:39:49;100452.00;;;11.70
69435;BMP180;56625;54.322;18.582;2023-04-15T08:42:27;100456.40;;;11.70
69435;BMP180;56625;54.322;18.582;2023-04-15T08:44:59;100452.40;;;11.70
69435;BMP180;56625;54.322;18.582;2023-04-15T08:47:29;100450.40;;;11.70
69435;BMP180;56625;54.322;18.582;2023-04-15T08:50:03;100452.80;;;11.80
69435;BMP180;56625;54.322;18.582;2023-04-15T08:52:31;100453.20;;;11.80
69435;BMP180;56625;54.322;18.582;2023-04-15T08:55:01;100458.00;;;11.80
69435;BMP180;56625;54.322;18.582;2023-04-15T08:57:30;100456.60;;;11.80
69435;BMP180;56625;54.322;18.582;2023-04-15T09:00:02;100462.00;;;11.80
69435;BMP180;56625;54.322;18.582;2023-04-15T09:02:32;100457.20;;;11.80
69435;BMP180;56625;54.322;18.582;2023-04-15T09:05:01;100467.60;;;11.80
69435;BMP180;56625;54.322;18.582;2023-04-15T09:07:33;100464.40;;;11.80
69435;BMP180;56625;54.322;18.582;2023-04-15T09:10:03;100459.80;;;11.80
69435;BMP180;56625;54.322;18.582;2023-04-15T09:12:34;100466.60;;;11.80
69435;BMP180;56625;54.322;18.582;2023-04-15T09:15:03;100466.20;;;11.80
69435;BMP180;56625;54.322;18.582;2023-04-15T09:17:32;100463.80;;;11.80
69435;BMP180;56625;54.322;18.582;2023-04-15T09:20:13;100463.80;;;11.86
69435;BMP180;56625;54.322;18.582;2023-04-15T09:22:45;100465.40;;;11.90
69435;BMP180;56625;54.322;18.582;2023-04-15T09:28:01;100471.20;;;11.92
69435;BMP180;56625;54.322;18.582;2023-04-15T09:30:29;100474.20;;;11.90
69435;BMP180;56625;54.322;18.582;2023-04-15T09:33:00;100467.20;;;11.90
69435;BMP180;56625;54.322;18.582;2023-04-15T09:35:29;100472.60;;;11.90
69435;BMP180;56625;54.322;18.582;2023-04-15T09:38:06;100468.20;;;11.90
69435;BMP180;56625;54.322;18.582;2023-04-15T09:40:37;100472.60;;;11.90
69435;BMP180;56625;54.322;18.582;2023-04-15T09:43:08;100469.20;;;11.90
69435;BMP180;56625;54.322;18.582;2023-04-15T09:45:36;100470.20;;;11.90
69435;BMP180;56625;54.322;18.582;2023-04-15T09:48:19;100466.60;;;11.90
69435;BMP180;56625;54.322;18.582;2023-04-15T09:50:49;100473.60;;;12.00
69435;BMP180;56625;54.322;18.582;2023-04-15T09:53:20;100472.60;;;12.00
69435;BMP180;56625;54.322;18.582;2023-04-15T09:55:51;100470.20;;;12.08
69435;BMP180;56625;54.322;18.582;2023-04-15T09:58:29;100473.40;;;12.08
69435;BMP180;56625;54.322;18.582;2023-04-15T10:01:01;100478.60;;;12.00
69435;BMP180;56625;54.322;18.582;2023-04-15T10:03:33;100481.40;;;12.00
69435;BMP180;56625;54.322;18.582;2023-04-15T10:06:03;100479.60;;;12.00
69435;BMP180;56625;54.322;18.582;2023-04-15T10:08:33;100479.80;;;12.00
69435;BMP180;56625;54.322;18.582;2023-04-15T10:11:02;100484.20;;;12.00
69435;BMP180;56625;54.322;18.582;2023-04-15T10:13:32;100478.80;;;12.00
69435;BMP180;56625;54.322;18.582;2023-04-15T10:16:13;100481.80;;;11.98
69435;BMP180;56625;54.322;18.582;2023-04-15T10:18:48;100483.40;;;12.00
69435;BMP180;56625;54.322;18.582;2023-04-15T10:21:18;100483.40;;;12.00
69435;BMP180;56625;54.322;18.582;2023-04-15T10:23:47;100482.80;;;12.10
69435;BMP180;56625;54.322;18.582;2023-04-15T10:26:16;100479.80;;;12.14
69435;BMP180;56625;54.322;18.582;2023-04-15T10:28:45;100485.20;;;12.20
69435;BMP180;56625;54.322;18.582;2023-04-15T10:31:17;100485.60;;;12.30
69435;BMP180;56625;54.322;18.582;2023-04-15T10:33:47;100480.60;;;12.40
69435;BMP180;56625;54.322;18.582;2023-04-15T10:36:18;100481.20;;;12.42
69435;BMP180;56625;54.322;18.582;2023-04-15T10:38:46;100481.40;;;12.50
69435;BMP180;56625;54.322;18.582;2023-04-15T10:41:23;100479.20;;;12.54
69435;BMP180;56625;54.322;18.582;2023-04-15T10:43:56;100473.20;;;12.64
69435;BMP180;56625;54.322;18.582;2023-04-15T10:46:43;100476.60;;;12.60
69435;BMP180;56625;54.322;18.582;2023-04-15T10:49:16;100474.60;;;12.60
69435;BMP180;56625;54.322;18.582;2023-04-15T10:51:52;100476.40;;;12.70
69435;BMP180;56625;54.322;18.582;2023-04-15T10:57:22;100477.60;;;12.70
69435;BMP180;56625;54.322;18.582;2023-04-15T11:00:29;100472.20;;;12.60
69435;BMP180;56625;54.322;18.582;2023-04-15T11:03:08;100475.20;;;12.50
69435;BMP180;56625;54.322;18.582;2023-04-15T11:05:52;100472.60;;;12.50
69435;BMP180;56625;54.322;18.582;2023-04-15T11:08:58;100477.60;;;12.50
69435;BMP180;56625;54.322;18.582;2023-04-15T11:12:07;100479.40;;;12.48
69435;BMP180;56625;54.322;18.582;2023-04-15T11:14:39;100482.00;;;12.30
69435;BMP180;56625;54.322;18.582;2023-04-15T11:17:08;100474.80;;;12.30
69435;BMP180;56625;54.322;18.582;2023-04-15T11:19:37;100472.60;;;12.30
69435;BMP180;56625;54.322;18.582;2023-04-15T11:22:10;100474.20;;;12.30
69435;BMP180;56625;54.322;18.582;2023-04-15T11:24:47;100469.40;;;12.30
69435;BMP180;56625;54.322;18.582;2023-04-15T11:27:22;100472.20;;;12.30
69435;BMP180;56625;54.322;18.582;2023-04-15T11:29:50;100480.40;;;12.40
69435;BMP180;56625;54.322;18.582;2023-04-15T11:32:20;100476.80;;;12.40
69435;BMP180;56625;54.322;18.582;2023-04-15T11:34:48;100479.80;;;12.40
69435;BMP180;56625;54.322;18.582;2023-04-15T11:37:28;100480.40;;;12.48
69435;BMP180;56625;54.322;18.582;2023-04-15T11:39:56;100480.40;;;12.58
69435;BMP180;56625;54.322;18.582;2023-04-15T11:42:24;100480.00;;;12.60
69435;BMP180;56625;54.322;18.582;2023-04-15T11:45:11;100483.00;;;12.70
69435;BMP180;56625;54.322;18.582;2023-04-15T11:47:41;100490.20;;;12.70
69435;BMP180;56625;54.322;18.582;2023-04-15T11:50:27;100491.20;;;12.70
69435;BMP180;56625;54.322;18.582;2023-04-15T11:52:58;100493.40;;;12.80
69435;BMP180;56625;54.322;18.582;2023-04-15T11:55:28;100489.60;;;12.90
69435;BMP180;56625;54.322;18.582;2023-04-15T11:58:10;100487.60;;;12.96
69435;BMP180;56625;54.322;18.582;2023-04-15T12:00:53;100487.60;;;13.20
69435;BMP180;56625;54.322;18.582;2023-04-15T12:06:18;100486.80;;;13.34
69435;BMP180;56625;54.322;18.582;2023-04-15T12:11:50;100495.80;;;13.40
69435;BMP180;56625;54.322;18.582;2023-04-15T12:14:24;100502.20;;;13.30
69435;BMP180;56625;54.322;18.582;2023-04-15T12:19:36;100500.60;;;13.28
69435;BMP180;56625;54.322;18.582;2023-04-15T12:22:08;100508.00;;;13.20
69435;BMP180;56625;54.322;18.582;2023-04-15T12:24:38;100506.40;;;13.00
69435;BMP180;56625;54.322;18.582;2023-04-15T12:27:09;100508.20;;;12.80
69435;BMP180;56625;54.322;18.582;2023-04-15T12:29:40;100511.80;;;12.70
69435;BMP180;56625;54.322;18.582;2023-04-15T12:32:12;100510.00;;;12.60
69435;BMP180;56625;54.322;18.582;2023-04-15T12:34:51;100512.80;;;12.50
69435;BMP180;56625;54.322;18.582;2023-04-15T12:37:20;100516.80;;;12.42
69435;BMP180;56625;54.322;18.582;2023-04-15T12:39:49;100524.40;;;12.40
69435;BMP180;56625;54.322;18.582;2023-04-15T12:42:18;100521.00;;;12.30
69435;BMP180;56625;54.322;18.582;2023-04-15T12:44:47;100528.40;;;12.30
69435;BMP180;56625;54.322;18.582;2023-04-15T12:47:15;100532.80;;;12.30
69435;BMP180;56625;54.322;18.582;2023-04-15T12:49:42;100535.20;;;12.30
69435;BMP180;56625;54.322;18.582;2023-04-15T12:52:10;100537.00;;;12.30
69435;BMP180;56625;54.322;18.582;2023-04-15T12:54:38;100542.20;;;12.20
69435;BMP180;56625;54.322;18.582;2023-04-15T12:57:06;100537.00;;;12.10
69435;BMP180;56625;54.322;18.582;2023-04-15T12:59:35;100543.60;;;12.00
69435;BMP180;56625;54.322;18.582;2023-04-15T13:02:03;100552.00;;;11.94
69435;BMP180;56625;54.322;18.582;2023-04-15T13:04:31;100552.60;;;11.90
69435;BMP180;56625;54.322;18.582;2023-04-15T13:07:01;100560.00;;;11.90
69435;BMP180;56625;54.322;18.582;2023-04-15T13:09:29;100554.40;;;11.90
69435;BMP180;56625;54.322;18.582;2023-04-15T13:11:57;100556.20;;;11.90
69435;BMP180;56625;54.322;18.582;2023-04-15T13:14:25;100556.80;;;11.88
69435;BMP180;56625;54.322;18.582;2023-04-15T13:16:53;100555.80;;;11.80
69435;BMP180;56625;54.322;18.582;2023-04-15T13:19:22;100557.80;;;11.80
69435;BMP180;56625;54.322;18.582;2023-04-15T13:21:50;100566.60;;;11.80
69435;BMP180;56625;54.322;18.582;2023-04-15T13:24:18;100569.60;;;11.82
69435;BMP180;56625;54.322;18.582;2023-04-15T13:26:46;100571.40;;;11.82
69435;BMP180;56625;54.322;18.582;2023-04-15T13:29:16;100571.20;;;11.86
69435;BMP180;56625;54.322;18.582;2023-04-15T13:31:44;100572.80;;;11.80
69435;BMP180;56625;54.322;18.582;2023-04-15T13:34:15;100575.80;;;11.80
69435;BMP180;56625;54.322;18.582;2023-04-15T13:36:44;100574.40;;;11.78
69435;BMP180;56625;54.322;18.582;2023-04-15T13:39:12;100578.20;;;11.76
69435;BMP180;56625;54.322;18.582;2023-04-15T13:41:42;100580.80;;;11.78
69435;BMP180;56625;54.322;18.582;2023-04-15T13:44:10;100581.80;;;11.80
69435;BMP180;56625;54.322;18.582;2023-04-15T13:46:40;100582.40;;;11.80
69435;BMP180;56625;54.322;18.582;2023-04-15T13:49:09;100584.60;;;11.80
69435;BMP180;56625;54.322;18.582;2023-04-15T13:51:37;100581.60;;;11.80
69435;BMP180;56625;54.322;18.582;2023-04-15T13:54:05;100583.00;;;11.80
69435;BMP180;56625;54.322;18.582;2023-04-15T13:56:33;100587.60;;;11.84
69435;BMP180;56625;54.322;18.582;2023-04-15T13:59:01;100596.40;;;11.90
69435;BMP180;56625;54.322;18.582;2023-04-15T14:01:30;100590.80;;;11.90
69435;BMP180;56625;54.322;18.582;2023-04-15T14:03:58;100593.80;;;11.90
69435;BMP180;56625;54.322;18.582;2023-04-15T14:06:27;100596.20;;;11.90
69435;BMP180;56625;54.322;18.582;2023-04-15T14:08:55;100593.80;;;11.82
69435;BMP180;56625;54.322;18.582;2023-04-15T14:11:23;100600.00;;;11.88
69435;BMP180;56625;54.322;18.582;2023-04-15T14:13:50;100601.40;;;11.90